createdAt,value
2018-05-21T00:03:54.054Z,95541
2018-05-21T00:08:49.789Z,95541
2018-05-21T00:13:45.856Z,95547
2018-05-21T00:18:41.629Z,95538
2018-05-21T00:23:37.267Z,95542
2018-05-21T00:28:32.606Z,95542
2018-05-21T00:33:28.729Z,95548
2018-05-21T00:38:24.933Z,95545
2018-05-21T00:43:20.589Z,95548
2018-05-21T00:48:16.045Z,95549
2018-05-21T00:53:11.680Z,95535
2018-05-21T00:58:07.520Z,95530
2018-05-21T01:03:03.698Z,95540
2018-05-21T01:07:59.787Z,95535
2018-05-21T01:12:55.525Z,95541
2018-05-21T01:17:51.593Z,95533
2018-05-21T01:22:47.496Z,95541
2018-05-21T01:27:43.531Z,95538
2018-05-21T01:32:39.524Z,95535
2018-05-21T01:37:35.183Z,95538
2018-05-21T01:42:31.464Z,95530
2018-05-21T01:47:27.350Z,95524
2018-05-21T01:52:23.341Z,95525
2018-05-21T01:57:19.364Z,95525
2018-05-21T02:02:14.636Z,95529
2018-05-21T02:07:10.333Z,95539
2018-05-21T02:12:06.256Z,95531
2018-05-21T02:17:02.301Z,95526
2018-05-21T02:21:58.110Z,95529
2018-05-21T02:26:54.244Z,95542
2018-05-21T02:31:50.036Z,95538
2018-05-21T02:36:45.898Z,95534
2018-05-21T02:41:41.744Z,95545
2018-05-21T02:46:37.729Z,95543
2018-05-21T02:51:33.894Z,95552
2018-05-21T02:56:29.640Z,95552
2018-05-21T03:01:25.379Z,95555
2018-05-21T03:06:21.474Z,95563
2018-05-21T03:11:17.494Z,95554
2018-05-21T03:16:13.540Z,95558
2018-05-21T03:21:09.539Z,95554
2018-05-21T03:26:05.636Z,95558
2018-05-21T03:31:01.615Z,95556
2018-05-21T03:35:57.819Z,95555
2018-05-21T03:40:54.002Z,95477
2018-05-21T03:45:49.832Z,95567
2018-05-21T03:50:45.517Z,95568
2018-05-21T03:55:41.494Z,95571
2018-05-21T04:00:37.595Z,95566
2018-05-21T04:05:33.509Z,95565
2018-05-21T04:10:29.481Z,95564
2018-05-21T04:15:25.319Z,95580
2018-05-21T04:20:21.232Z,95573
2018-05-21T04:25:17.309Z,95583
2018-05-21T04:30:12.977Z,95575
2018-05-21T04:35:09.146Z,95578
2018-05-21T04:40:04.454Z,95571
2018-05-21T04:45:00.793Z,95575
2018-05-21T04:49:56.950Z,95584
2018-05-21T04:54:52.949Z,95583
2018-05-21T04:59:48.926Z,95588
2018-05-21T05:04:44.717Z,95584
2018-05-21T05:09:41.320Z,95588
2018-05-21T05:14:36.683Z,95609
2018-05-21T05:19:32.717Z,95589
2018-05-21T05:24:28.618Z,95583
2018-05-21T05:29:24.413Z,95586
2018-05-21T05:34:20.483Z,95574
2018-05-21T05:39:16.005Z,95577
2018-05-21T05:44:12.183Z,95340
2018-05-21T05:49:08.236Z,95595
2018-05-21T05:54:02.257Z,95588
2018-05-21T05:58:58.466Z,95584
2018-05-21T06:03:53.977Z,95581
2018-05-21T06:08:49.789Z,95585
2018-05-21T06:13:45.979Z,95516
2018-05-21T06:18:41.624Z,95575
2018-05-21T06:23:37.547Z,95575
2018-05-21T06:28:33.515Z,95582
2018-05-21T06:33:29.824Z,95581
2018-05-21T06:38:25.737Z,95581
2018-05-21T06:43:21.724Z,95476
2018-05-21T06:48:17.541Z,95574
2018-05-21T06:53:13.636Z,95570
2018-05-21T06:58:09.702Z,95569
2018-05-21T07:03:05.865Z,95574
2018-05-21T07:08:02.208Z,95574
2018-05-21T07:12:58.103Z,95572
2018-05-21T07:17:53.964Z,95583
2018-05-21T07:22:49.658Z,95581
2018-05-21T07:27:45.571Z,95582
2018-05-21T07:32:41.670Z,95577
2018-05-21T07:37:37.311Z,95579
2018-05-21T07:42:33.495Z,95578
2018-05-21T07:47:29.213Z,95578
2018-05-21T07:52:25.388Z,95576
2018-05-21T07:57:21.365Z,95601
2018-05-21T08:02:17.145Z,95586
2018-05-21T08:07:13.104Z,95586
2018-05-21T08:12:08.661Z,95587
2018-05-21T08:17:04.694Z,95587
2018-05-21T08:22:00.517Z,95589
2018-05-21T08:26:56.471Z,95588
2018-05-21T08:31:52.393Z,95602
2018-05-21T08:36:48.478Z,95598
2018-05-21T08:41:44.434Z,95599
2018-05-21T08:46:40.636Z,95601
2018-05-21T08:51:36.454Z,95601
2018-05-21T08:56:32.241Z,95597
2018-05-21T09:01:27.828Z,95610
2018-05-21T09:06:23.882Z,95604
2018-05-21T09:11:20.051Z,95604
2018-05-21T09:16:16.057Z,95603
2018-05-21T09:21:11.870Z,95593
2018-05-21T09:26:07.797Z,95596
2018-05-21T09:31:03.792Z,95595
2018-05-21T09:35:59.539Z,95343
2018-05-21T09:40:55.286Z,95584
2018-05-21T09:45:51.302Z,95554
2018-05-21T09:50:47.314Z,95491
2018-05-21T09:55:43.409Z,95591
2018-05-21T10:00:39.494Z,95592
2018-05-21T10:05:35.476Z,95601
2018-05-21T10:10:31.501Z,95592
2018-05-21T10:15:27.420Z,95598
2018-05-21T10:20:23.258Z,95584
2018-05-21T10:25:19.429Z,95584
2018-05-21T10:30:15.381Z,95587
2018-05-21T10:35:11.421Z,95596
2018-05-21T10:40:07.849Z,95599
2018-05-21T10:45:04.073Z,95594
2018-05-21T10:50:00.291Z,95585
2018-05-21T10:54:56.386Z,95584
2018-05-21T10:59:51.946Z,95582
2018-05-21T11:04:48.062Z,95574
2018-05-21T11:09:44.070Z,95572
2018-05-21T11:14:40.428Z,95568
2018-05-21T11:19:37.451Z,95577
2018-05-21T11:24:35.479Z,95568
2018-05-21T11:29:31.708Z,95568
2018-05-21T11:34:28.107Z,95572
2018-05-21T11:39:24.538Z,95567
2018-05-21T11:44:20.526Z,95557
2018-05-21T11:49:16.613Z,95563
2018-05-21T11:54:12.884Z,95563
2018-05-21T11:59:09.020Z,95559
2018-05-21T12:04:04.706Z,95554
2018-05-21T12:09:00.853Z,95554
2018-05-21T12:13:56.832Z,95555
2018-05-21T12:18:52.572Z,95551
2018-05-21T12:23:48.598Z,95545
2018-05-21T12:28:44.863Z,95553
2018-05-21T12:33:40.914Z,95547
2018-05-21T12:38:37.084Z,95548
2018-05-21T12:43:33.201Z,95535
2018-05-21T12:48:29.332Z,95532
2018-05-21T12:53:24.927Z,95529
2018-05-21T12:58:20.902Z,95515
2018-05-21T13:03:17.203Z,95502
2018-05-21T13:08:13.379Z,95498
2018-05-21T13:13:09.351Z,95496
2018-05-21T13:18:05.612Z,95494
2018-05-21T13:23:02.414Z,95499
2018-05-21T13:27:58.177Z,95494
2018-05-21T13:32:54.180Z,95481
2018-05-21T13:37:50.893Z,95472
2018-05-21T13:42:46.309Z,95461
2018-05-21T13:47:42.584Z,95465
2018-05-21T13:52:38.852Z,95464
2018-05-21T13:57:34.859Z,95462
2018-05-21T14:02:31.034Z,95466
2018-05-21T14:07:27.215Z,95448
2018-05-21T14:12:23.465Z,95460
2018-05-21T14:17:19.825Z,95447
2018-05-21T14:22:15.831Z,95453
2018-05-21T14:27:11.912Z,95459
2018-05-21T14:32:07.551Z,95381
2018-05-21T14:37:01.432Z,95460
2018-05-21T14:41:57.569Z,95461
2018-05-21T14:46:53.819Z,95443
2018-05-21T14:51:49.956Z,95450
2018-05-21T14:56:45.884Z,95441
2018-05-21T15:01:41.575Z,95443
2018-05-21T15:06:37.632Z,95461
2018-05-21T15:11:33.222Z,95441
2018-05-21T15:16:28.893Z,95436
2018-05-21T15:21:25.080Z,95425
2018-05-21T15:26:20.909Z,95425
2018-05-21T15:31:16.926Z,95419
2018-05-21T15:36:12.846Z,95427
2018-05-21T15:41:09.419Z,95424
2018-05-21T15:46:05.394Z,95420
2018-05-21T15:51:01.656Z,95420
2018-05-21T15:55:57.313Z,95411
2018-05-21T16:00:53.411Z,95420
2018-05-21T16:05:49.575Z,95422
2018-05-21T16:10:45.308Z,95426
2018-05-21T16:15:41.133Z,95418
2018-05-21T16:20:37.135Z,95413
2018-05-21T16:25:33.024Z,95414
2018-05-21T16:30:28.905Z,95413
2018-05-21T16:35:25.242Z,95415
2018-05-21T16:40:21.468Z,95422
2018-05-21T16:45:17.162Z,95422
2018-05-21T16:50:12.834Z,95412
2018-05-21T16:55:08.861Z,95418
2018-05-21T17:00:05.077Z,95416
2018-05-21T17:05:01.072Z,95415
2018-05-21T17:09:57.156Z,95424
2018-05-21T17:14:52.863Z,95427
2018-05-21T17:19:49.006Z,95434
2018-05-21T17:24:44.742Z,95430
2018-05-21T17:29:40.761Z,95431
2018-05-21T17:34:36.868Z,95435
2018-05-21T17:39:33.009Z,95414
2018-05-21T17:44:28.568Z,95436
2018-05-21T17:49:24.613Z,95437
2018-05-21T17:54:20.288Z,95441
2018-05-21T17:59:16.220Z,95447
2018-05-21T18:04:11.766Z,95447
2018-05-21T18:09:08.006Z,95458
2018-05-21T18:14:03.953Z,95463
2018-05-21T18:18:59.922Z,95462
2018-05-21T18:23:55.943Z,95463
2018-05-21T18:28:52.076Z,95463
2018-05-21T18:33:48.479Z,95476
2018-05-21T18:38:44.234Z,95472
2018-05-21T18:43:40.372Z,95483
2018-05-21T18:48:36.199Z,95477
2018-05-21T18:53:32.330Z,95477
2018-05-21T18:58:28.508Z,95469
2018-05-21T19:03:24.411Z,95479
2018-05-21T19:08:19.885Z,95477
2018-05-21T19:13:16.085Z,95467
2018-05-21T19:18:11.692Z,95458
2018-05-21T19:23:07.852Z,95470
2018-05-21T19:28:03.816Z,95469
2018-05-21T19:32:59.277Z,95463
2018-05-21T19:37:55.743Z,95453
2018-05-21T19:42:51.819Z,95463
2018-05-21T19:47:47.385Z,95461
2018-05-21T19:52:43.352Z,95453
2018-05-21T19:57:39.571Z,95449
2018-05-21T20:02:35.643Z,95449
2018-05-21T20:07:31.465Z,95459
2018-05-21T20:12:27.636Z,95453
2018-05-21T20:17:23.991Z,95450
2018-05-21T20:22:19.918Z,95449
2018-05-21T20:27:15.950Z,95465
2018-05-21T20:32:11.796Z,95462
2018-05-21T20:37:07.921Z,95461
2018-05-21T20:42:04.092Z,95462
2018-05-21T20:46:59.940Z,95478
2018-05-21T20:51:55.968Z,95476
2018-05-21T20:56:51.735Z,95477
2018-05-21T21:01:47.434Z,95480
2018-05-21T21:06:44.082Z,95483
2018-05-21T21:11:40.151Z,95481
2018-05-21T21:16:35.934Z,95481
2018-05-21T21:21:32.153Z,95488
2018-05-21T21:26:28.262Z,95485
2018-05-21T21:31:24.005Z,95491
2018-05-21T21:36:19.736Z,95488
2018-05-21T21:41:15.545Z,95493
2018-05-21T21:46:11.494Z,95502
2018-05-21T21:51:07.696Z,95496
2018-05-21T21:56:03.271Z,95499
2018-05-21T22:00:59.444Z,95497
2018-05-21T22:05:55.619Z,95494
2018-05-21T22:10:51.698Z,95497
2018-05-21T22:15:47.662Z,95497
2018-05-21T22:20:43.521Z,95494
2018-05-21T22:25:39.393Z,95494
2018-05-21T22:30:35.561Z,95485
2018-05-21T22:35:31.390Z,95487
2018-05-21T22:40:27.818Z,95485
2018-05-21T22:45:23.669Z,95487
2018-05-21T22:50:19.801Z,95493
2018-05-21T22:55:15.666Z,95488
2018-05-21T23:00:11.448Z,95488
2018-05-21T23:05:07.768Z,95495
2018-05-21T23:10:03.759Z,95498
2018-05-21T23:15:00.054Z,95505
2018-05-21T23:19:55.885Z,95503
2018-05-21T23:24:51.628Z,95493
2018-05-21T23:29:47.624Z,95500
2018-05-21T23:34:43.750Z,95505
2018-05-21T23:39:39.938Z,95500
2018-05-21T23:44:36.228Z,95501
2018-05-21T23:49:32.723Z,95507
2018-05-21T23:54:28.807Z,95496
2018-05-21T23:59:24.781Z,95506
